Green Cove Springs, Florida
Current Conditions -  °F | °C
As of 3:53 AM on Saturday 25 Oct 2014 (Local Time) from KNIP Reporting Station
Clear Clear  
Wind Chill: 59°   Ceiling: Unl
Heat Index: 59°   Visibility: 10mi
Dew Point: 53°   Wind: 3mph
Humidity: 81%   Direction: 270°W
Pressure: 29.98"   Gusts: NA
Location:  29.99°N, 81.68°W
Report Text: KNIP 250753Z 27003KT 10SM CLR 15/12 A2998 RMK AO2 SLP149 T01500117
Loading
Personal Weather Stations






























Interactive Weather Map New forecast layout! Learn more

10-Day Weather Forecast

Advertisements
Track Severe Weather on mobile